Lake Park, FL (33403)

6:23 AM EST on February 13, 2016 (GMT -0500)
Rybovich Boat Company | | Change Station
CLOSE
Current Station
Personal Weather Station
Location: West Palm Beach, FL
Elevation: 10 ft
Nearby Weather Stations

Elev 10 ft 26.75 °N, 80.05 °W | Updated 12 seconds ago

Clear
Clear
57.1 °F
Feels Like 57.1 °F
N
4.4
Wind Variable Wind from WNW
Gusts 6.0 mph

Today
High -- | Low -- °F
--% Chance of Precip.
Yesterday
High -- | Low -- °F
Precip. -- in
Pressure 30.20 in
Visibility 10.0 miles
Clouds Clear
Dew Point 55 °F
Humidity 93%
Rainfall 0.00 in
Snow Depth Not available.
6:58 AM 6:11 PM
Waxing Crescent, 29% visible
METAR KPBI 131053Z 27004KT 10SM CLR 12/11 A3020 RMK AO2 SLP226 T01220111 $
Pressure 30.20 in
Visibility 10.0 miles
Clouds Clear
Dew Point 55 °F
Humidity 93%
Rainfall 0.00 in
Snow Depth Not available.
6:58 AM 6:11 PM
Waxing Crescent, 29% visible
METAR KPBI 131053Z 27004KT 10SM CLR 12/11 A3020 RMK AO2 SLP226 T01220111 $

10-Day Weather Forecast

Almanac

Astronomy

Feb. 13, 2016 Rise Set
Actual Time
Civil Twilight
Nautical Twilight
Astronomical Twilight
Moon
Length of Visible Light
Length of Day
Tomorrow will be .
, % of the Moon is Illuminated

Today's Extremes

State Highs State Lows

Community

WunderPhotos

Upload Photos

1,892,541 photos uploaded!

WunderBlog® & News

Nearby

Air Quality

  Air Quality AQ Index Pollutant
Not available.

Snow Depth

Station Depth Elevation

Earthquake Activity

City Distance Mag. Time & Date
Minimum magnitude displayed is 2.5.

Coastal Water Temperatures

Place Temperature

Stations

Nearby Weather Stations

Station Location Temp. Windchill Dew Point Humidity Wind Precip. Elev Updated Type
                   

Watches & Warnings

There are currently no watches in effect.